Latest Weather Observations for Mount Hotham

IDV60801

Issued at 2:02 pm EST Sunday 2 August 2015 (issued every 30 minutes, with the page automatically refreshed every 10 minutes)

About weather observations | Map of weather stations | Latest weather observations for VIC | Other Formats
Station Details ID: 083085 Name: MOUNT HOTHAM Lat: -36.98 Lon: 147.13 Height: 1849.0 m
Data from the previous 72 hours. | See also: Recent months at Mount Hotham
Date/Time
EST
Temp
°C
App
Temp
°C
Dew
Point
Rel
Hum
%
Delta-T
°C
Wind Press
QNH
hPa
Press
MSL
hPa
Rain
since 9 am
mm
Dir
 
Spd
km/h
Gust
km/h
Spd
kts
Gust
kts
02/02:00pm -2.7 -8.7 -3.0 98 0.0 W 19 22 10 12 - - 0.0
02/01:30pm -2.4 -8.4 -2.7 98 0.0 W 19 22 10 12 - - 0.0
02/01:00pm -2.1 -8.0 -2.4 98 0.0 W 19 22 10 12 - - 0.0
02/12:30pm -2.0 -7.5 -2.3 98 0.0 W 17 20 9 11 - - 0.0
02/12:00pm -2.0 -8.1 -2.3 98 0.0 W 20 28 11 15 - - 0.0
02/11:30am -2.1 -8.0 -2.4 98 0.0 W 19 22 10 12 - - 0.0
02/11:00am -2.1 -8.0 -2.4 98 0.0 W 19 22 10 12 - - 0.0
02/10:30am -2.2 -8.1 -2.5 98 0.0 W 19 20 10 11 - - 0.0
02/10:00am -2.1 -8.0 -2.4 98 0.0 W 19 20 10 11 - - 0.0
02/09:30am -2.1 -8.0 -2.4 98 0.0 W 19 20 10 11 - - 0.0
02/09:00am -2.0 -7.5 -2.3 98 0.0 W 17 20 9 11 - - 0.0
02/08:30am -1.9 -7.4 -2.2 98 0.0 W 17 20 9 11 - - 0.0
02/08:00am -1.8 -7.3 -2.1 98 0.0 W 17 20 9 11 - - 0.0
02/07:30am -1.6 -7.5 -1.9 98 0.0 W 19 20 10 11 - - 0.0
02/07:00am -1.5 -7.5 -1.8 98 0.0 W 20 24 11 13 - - 0.0
02/06:30am -1.5 -7.9 -1.8 98 0.0 W 22 30 12 16 - - 0.0
02/06:00am -1.4 -8.9 -1.7 98 0.0 W 28 35 15 19 - - 0.0
02/05:30am -1.7 -8.5 -2.0 98 0.0 W 24 30 13 16 - - 0.0
02/05:00am -1.8 -8.3 -2.1 98 0.0 W 22 30 12 16 - - 0.0
02/04:30am -1.7 -7.8 -2.0 98 0.0 W 20 24 11 13 - - 0.0
02/04:00am -1.6 -7.6 -1.9 98 0.0 W 20 24 11 13 - - 0.0
02/03:30am -1.6 -7.6 -1.9 98 0.0 W 20 28 11 15 - - 0.0
02/03:00am -1.5 -7.9 -1.8 98 0.0 W 22 30 12 16 - - 0.0
02/02:30am -1.5 -7.9 -1.8 98 0.0 W 22 30 12 16 - - 0.0
02/02:00am -1.5 -7.5 -1.8 98 0.0 W 20 24 11 13 - - 0.0
02/01:30am -1.5 -8.3 -1.6 99 0.0 W 24 33 13 18 - - 0.0
02/01:00am -1.3 -8.0 -1.4 99 0.0 W 24 32 13 17 - - 0.0
02/12:30am -1.2 -8.7 -1.3 99 0.0 W 28 37 15 20 - - 0.0
02/12:00am -1.1 -8.6 -1.2 99 0.0 W 28 35 15 19 - - 0.0
 
Date/Time
EST
Temp
°C
App
Temp
°C
Dew
Point
Rel
Hum
%
Delta-T
°C
Wind Press
QNH
hPa
Press
MSL
hPa
Rain
since 9 am
mm
Dir
 
Spd
km/h
Gust
km/h
Spd
kts
Gust
kts
01/11:30pm -1.1 -7.8 -1.2 99 0.0 W 24 32 13 17 - - 0.0
01/11:00pm -1.0 -7.7 -1.1 99 0.0 W 24 32 13 17 - - 0.0
01/10:30pm -1.0 -7.3 -1.1 99 0.0 W 22 32 12 17 - - 0.0
01/10:00pm -1.0 -8.5 -1.1 99 0.0 W 28 41 15 22 - - 0.0
01/09:30pm -1.0 -7.3 -1.1 99 0.0 W 22 26 12 14 - - 0.0
01/09:00pm -1.0 -7.3 -1.1 99 0.0 W 22 32 12 17 - - 0.0
01/08:30pm -1.0 -6.7 -1.1 99 0.0 W 19 24 10 13 - - 0.0
01/08:00pm -1.0 -8.1 -1.1 99 0.0 WNW 26 35 14 19 - - 0.0
01/07:30pm -0.9 -8.0 -1.0 99 0.0 W 26 37 14 20 - - 0.0
01/07:00pm -0.8 -9.2 -0.9 99 0.0 WNW 33 44 18 24 - - 0.0
01/06:30pm -0.6 -8.8 -0.7 99 0.0 WNW 32 43 17 23 - - 0.0
01/06:00pm -0.4 -8.7 -0.5 99 0.0 WNW 33 41 18 22 - - 0.0
01/05:30pm -0.5 -7.1 -0.6 99 0.0 WNW 24 32 13 17 - - 0.0
01/05:00pm -0.5 -8.8 -0.6 99 0.0 W 33 44 18 24 - - 0.0
01/04:30pm -0.4 -9.9 -0.5 99 0.0 W 39 56 21 30 - - 0.0
01/04:03pm -0.2 -8.5 -0.3 99 0.0 W 33 52 18 28 - - 0.0
01/04:00pm -0.2 -8.5 -0.3 99 0.0 W 33 46 18 25 - - 0.0
01/03:30pm -0.2 -7.9 -0.3 99 0.0 W 30 44 16 24 - - 0.0
01/03:08pm -0.1 -8.2 -0.2 99 0.0 W 32 50 17 27 - - 0.0
01/03:00pm -0.1 -8.8 -0.2 99 0.0 WSW 35 52 19 28 - - 0.0
01/02:47pm -0.1 -8.2 -0.2 99 0.0 SW 32 52 17 28 - - 0.0
01/02:30pm -0.1 -8.2 -0.2 99 0.0 W 32 41 17 22 - - 0.0
01/02:00pm -0.1 -7.8 -0.2 99 0.0 WNW 30 46 16 25 - - 0.0
01/01:30pm -0.1 -8.2 -0.2 99 0.0 W 32 44 17 24 - - 0.0
01/01:00pm -0.1 -9.1 -0.2 99 0.0 WNW 37 50 20 27 - - 0.0
01/12:30pm -0.1 -9.5 -0.2 99 0.0 W 39 52 21 28 - - 0.0
01/12:00pm -0.1 -10.3 -0.2 99 0.0 WNW 43 56 23 30 - - 0.0
01/11:30am -0.1 -10.3 -0.2 99 0.0 WNW 43 56 23 30 - - 0.0
01/11:00am -0.1 -11.6 -0.2 99 0.0 WNW 50 63 27 34 - - 0.0
01/10:32am -0.1 -4.2 -0.2 99 0.0 WNW 11 63 6 34 - - 0.0
01/10:30am -0.1 -2.5 -0.2 99 0.0 WNW 2 20 1 11 - - 0.0
01/10:00am -0.1 -2.5 -0.2 99 0.0 WNW 2 6 1 3 - - 0.0
01/09:30am -0.1 -2.5 -0.2 99 0.0 WNW 2 4 1 2 - - 0.0
01/09:00am -0.2 -2.6 -0.3 99 0.0 WNW 2 4 1 2 - - 0.0
01/08:30am -0.2 -2.6 -0.3 99 0.0 WNW 2 6 1 3 - - 0.0
01/08:00am -0.2 -2.6 -0.3 99 0.0 WNW 2 6 1 3 - - 0.0
01/07:30am -0.2 -2.6 -0.3 99 0.0 WNW 2 6 1 3 - - 0.0
01/07:00am -0.2 -2.6 -0.3 99 0.0 WNW 2 6 1 3 - - 0.0
01/06:30am -0.3 -2.7 -0.4 99 0.0 WNW 2 6 1 3 - - 0.0
01/06:00am -0.3 -2.7 -0.4 99 0.0 WNW 2 6 1 3 - - 0.0
01/05:30am -0.4 -2.8 -0.5 99 0.0 WNW 2 6 1 3 - - 0.0
01/05:00am -0.6 -3.1 -0.7 99 0.0 WNW 2 6 1 3 - - 0.0
01/04:30am -0.8 -3.3 -0.9 99 0.0 WNW 2 6 1 3 - - 0.0
01/04:00am -0.9 -3.4 -1.2 98 0.1 WNW 2 7 1 4 - - 0.0
01/03:30am -1.3 -3.9 -1.6 98 0.0 WNW 2 6 1 3 - - 0.0
01/03:00am -1.7 -4.0 -2.0 98 0.0 CALM 0 6 0 3 - - 0.0
01/02:30am -2.1 -4.8 -2.5 97 0.0 WNW 2 6 1 3 - - 0.0
01/02:00am -2.8 -5.6 -3.2 97 0.0 WNW 2 6 1 3 - - 0.0
01/01:30am -3.1 -5.9 -3.5 97 0.0 WNW 2 6 1 3 - - 0.0
01/01:00am -3.5 -6.4 -4.0 96 0.0 WNW 2 6 1 3 - - 0.0
01/12:30am -3.7 -6.6 -4.2 96 0.0 WNW 2 6 1 3 - - 0.0
01/12:00am -3.8 -6.7 -4.3 96 0.0 WNW 2 6 1 3 - - 0.0
 
Date/Time
EST
Temp
°C
App
Temp
°C
Dew
Point
Rel
Hum
%
Delta-T
°C
Wind Press
QNH
hPa
Press
MSL
hPa
Rain
since 9 am
mm
Dir
 
Spd
km/h
Gust
km/h
Spd
kts
Gust
kts
31/11:30pm -3.7 -6.2 -4.2 96 0.0 CALM 0 4 0 2 - - 0.0
31/11:00pm -3.7 -6.2 -4.2 96 0.0 CALM 0 4 0 2 - - 0.0
31/10:30pm -3.7 -6.2 -4.2 96 0.0 CALM 0 4 0 2 - - 0.0
31/10:00pm -3.6 -6.1 -4.1 96 0.0 CALM 0 4 0 2 - - 0.0
31/09:30pm -3.8 -6.3 -4.3 96 0.0 CALM 0 2 0 1 - - 0.0
31/09:00pm -3.8 -6.3 -4.3 96 0.0 CALM 0 4 0 2 - - 0.0
31/08:30pm -3.6 -6.1 -4.1 96 0.0 CALM 0 2 0 1 - - 0.0
31/08:00pm -3.2 -5.7 -3.6 97 0.0 CALM 0 0 0 0 - - 0.0
31/07:30pm -3.3 -5.8 -3.7 97 0.0 CALM 0 2 0 1 - - 0.0
31/07:00pm -3.0 -5.4 -3.4 97 0.0 CALM 0 2 0 1 - - 0.0
31/06:30pm -2.7 -5.1 -3.0 98 0.0 CALM 0 2 0 1 - - 0.0
31/06:00pm -2.0 -4.3 -2.3 98 0.0 CALM 0 0 0 0 - - 0.0
31/05:30pm -1.5 -3.7 -1.8 98 0.0 CALM 0 2 0 1 - - 0.0
31/05:00pm -1.2 -3.4 -1.3 99 0.0 CALM 0 2 0 1 - - 0.0
31/04:30pm -1.1 -3.3 -1.2 99 0.0 CALM 0 0 0 0 - - 0.0
31/04:00pm -1.1 -3.3 -1.2 99 0.0 CALM 0 0 0 0 - - 0.0
31/03:30pm -1.0 -3.2 -1.3 98 0.1 CALM 0 0 0 0 - - 0.0
31/03:00pm -1.1 -3.3 -1.4 98 0.1 CALM 0 0 0 0 - - 0.0
31/02:30pm -1.2 -3.4 -1.5 98 0.1 CALM 0 0 0 0 - - 0.0
31/02:00pm -1.4 -3.6 -1.7 98 0.0 CALM 0 0 0 0 - - 0.0
31/01:30pm -1.8 -4.1 -2.2 97 0.1 CALM 0 0 0 0 - - 0.0
31/01:00pm -2.2 -4.5 -2.6 97 0.0 CALM 0 0 0 0 - - 0.0
31/12:30pm -2.7 -5.1 -3.2 96 0.1 CALM 0 0 0 0 - - 0.0
31/12:00pm -3.3 -5.8 -3.8 96 0.0 CALM 0 0 0 0 - - 0.0
31/11:30am -3.7 -6.2 -4.2 96 0.0 CALM 0 0 0 0 - - 0.0
31/11:00am -4.0 -6.6 -4.5 96 0.0 CALM 0 0 0 0 - - 0.0
31/10:30am -4.3 -6.9 -5.0 95 0.0 CALM 0 0 0 0 - - 0.0
31/10:00am -4.5 -7.1 -5.2 95 0.0 CALM 0 0 0 0 - - 0.0
31/09:30am -4.9 -7.5 -5.4 96 0.0 CALM 0 0 0 0 - - 0.0
31/09:00am -4.6 -7.2 -5.1 96 0.0 CALM 0 0 0 0 - - 0.0
31/08:30am -4.0 -6.5 -4.4 97 0.0 CALM 0 0 0 0 - - 0.0
31/08:00am -3.1 -5.5 -3.5 97 0.0 CALM 0 0 0 0 - - 0.0
31/07:30am -2.4 -4.8 -2.8 97 0.0 CALM 0 0 0 0 - - 0.0
31/07:00am -2.3 -4.6 -2.7 97 0.0 CALM 0 0 0 0 - - 0.0
31/06:30am -2.3 -4.6 -2.6 98 0.0 CALM 0 0 0 0 - - 0.0
31/06:00am -2.2 -4.5 -2.5 98 0.0 CALM 0 0 0 0 - - 0.0
31/05:30am -2.2 -4.5 -2.5 98 0.0 CALM 0 0 0 0 - - 0.0
31/05:00am -2.2 -4.5 -2.6 97 0.0 CALM 0 0 0 0 - - 0.0
31/04:30am -2.2 -4.5 -2.6 97 0.0 CALM 0 0 0 0 - - 0.0
31/04:00am -2.3 -4.6 -2.7 97 0.0 CALM 0 0 0 0 - - 0.0
31/03:30am -2.4 -4.8 -2.8 97 0.0 CALM 0 0 0 0 - - 0.0
31/03:00am -2.4 -4.8 -2.8 97 0.0 CALM 0 0 0 0 - - 0.0
31/02:30am -2.5 -4.9 -2.9 97 0.0 CALM 0 0 0 0 - - 0.0
31/02:00am -2.6 -5.0 -3.0 97 0.0 CALM 0 0 0 0 - - 0.0
31/01:30am -2.6 -5.0 -3.0 97 0.0 CALM 0 0 0 0 - - 0.0
31/01:00am -2.7 -5.1 -3.1 97 0.0 CALM 0 2 0 1 - - 0.0
31/12:30am -2.7 -5.1 -3.1 97 0.0 CALM 0 2 0 1 - - 0.0
31/12:00am -2.8 -5.2 -3.2 97 0.0 CALM 0 2 0 1 - - 0.0
 
Date/Time
EST
Temp
°C
App
Temp
°C
Dew
Point
Rel
Hum
%
Delta-T
°C
Wind Press
QNH
hPa
Press
MSL
hPa
Rain
since 9 am
mm
Dir
 
Spd
km/h
Gust
km/h
Spd
kts
Gust
kts
30/11:30pm -2.9 -5.3 -3.3 97 0.0 CALM 0 4 0 2 - - 0.0
30/11:00pm -3.0 -5.4 -3.4 97 0.0 CALM 0 4 0 2 - - 0.0
30/10:30pm -3.0 -5.4 -3.4 97 0.0 CALM 0 6 0 3 - - 0.0
30/10:00pm -3.1 -5.5 -3.5 97 0.0 CALM 0 4 0 2 - - 0.0
30/09:30pm -3.1 -5.5 -3.5 97 0.0 CALM 0 6 0 3 - - 0.0
30/09:00pm -3.1 -5.5 -3.5 97 0.0 CALM 0 4 0 2 - - 0.0
30/08:30pm -3.0 -5.8 -3.4 97 0.0 N 2 6 1 3 - - 0.0
30/08:00pm -2.9 -5.7 -3.3 97 0.0 N 2 6 1 3 - - 0.0
30/07:30pm -2.8 -5.6 -3.2 97 0.0 N 2 6 1 3 - - 0.0
30/07:00pm -2.8 -5.6 -3.2 97 0.0 NNW 2 6 1 3 - - 0.0
30/06:30pm -2.7 -5.5 -3.1 97 0.0 N 2 6 1 3 - - 0.0
30/06:00pm -2.7 -5.5 -3.1 97 0.0 NNW 2 6 1 3 - - 0.0
30/05:30pm -2.6 -5.4 -3.0 97 0.0 N 2 6 1 3 - - 0.0
30/05:00pm -2.7 -5.1 -3.1 97 0.0 CALM 0 4 0 2 - - 0.0
30/04:30pm -2.6 -5.4 -3.0 97 0.0 N 2 6 1 3 - - 0.0
30/04:00pm -2.6 -5.4 -3.0 97 0.0 N 2 6 1 3 - - 0.0
30/03:30pm -2.6 -5.0 -3.0 97 0.0 CALM 0 2 0 1 - - 0.0
30/03:00pm -2.6 -5.0 -3.0 97 0.0 CALM 0 2 0 1 - - 0.0
30/02:30pm -2.7 -5.1 -3.1 97 0.0 CALM 0 2 0 1 - - 0.0

Other Formats:

Comma delimited format used in spreadsheet applications
http://www.bom.gov.au/fwo/IDV60801/IDV60801.94906.axf

JavaScript Object Notation format (JSON) in row-major order
http://www.bom.gov.au/fwo/IDV60801/IDV60801.94906.json